Carroll, Ohio
Current Conditions -  °F | °C
As of 12:53 AM on Saturday 20 Dec 2014 (Local Time) from KLHQ Reporting Station
Overcast Overcast  
Wind Chill: 44°   Ceiling: 1600
Heat Index: 44°   Visibility: 10mi
Dew Point: 24°   Wind: 3mph
Humidity: 45%   Direction: 110°ESE
Pressure: 30.26"   Gusts: NA
Location:  39.8°N, 82.7°W
Report Text: KLHQ 200553Z AUTO 11003KT 10SM OVC016 07/M04 A3026 RMK AO2 SLP252 T00671044 10083 20006 56011
Loading
Personal Weather Stations






























Interactive Weather Map New forecast layout! Learn more

10-Day Weather Forecast

Advertisements
Track Severe Weather on mobile